Mountain Springs, Nevada
Current Conditions -  °F | °C
As of 1:56 AM on Tuesday 21 Oct 2014 (Local Time) from KHND Reporting Station
Clear Clear  
Wind Chill: 71°   Ceiling: Unl
Heat Index: 71°   Visibility: 10mi
Dew Point: 39°   Wind: 9mph
Humidity: 31%   Direction: 160°SSE
Pressure: 29.88"   Gusts: NA
Location:  35.8437°N, 115.134°W
Report Text: KHND 210856Z AUTO 16008KT 10SM CLR 22/04 A2988 RMK AO2 58001 T02160038 SLP096
Loading
Personal Weather Stations






























Interactive Weather Map
Tropical Storm Tracking
New forecast layout! Learn more

10-Day Weather Forecast

Advertisements
Track Severe Weather on mobile